Zeeland, North Dakota
Current Conditions -  °F | °C
As of 12:55 AM on Tuesday 21 Oct 2014 (Local Time) from K7L2 Reporting Station
Clear Clear  
Wind Chill: 54°   Ceiling: Unl
Heat Index: 54°   Visibility: 10mi
Dew Point: 36°   Wind: 20mph
Humidity: 51%   Direction: 140°SE
Pressure: 29.92"   Gusts: 26mph
Location:  45.97°N, 99.83°W
Report Text: K7L2 210555Z AUTO 14017G23KT 10SM CLR 12/02 A2992 RMK AO2 PWINO PNO
Loading
Personal Weather Stations






























Interactive Weather Map
Tropical Storm Tracking
New forecast layout! Learn more

10-Day Weather Forecast

Advertisements
Track Severe Weather on mobile